TimeCDT,TemperatureF,Dew PointF,Humidity,Sea Level PressureIn,VisibilityMPH,Wind Direction,Wind SpeedMPH,Gust SpeedMPH,PrecipitationIn,Events,Conditions,WindDirDegrees,DateUTC
12:51 AM,73.0,70.0,90,30.14,10.0,Calm,Calm,-,N/A,,Clear,0,2012-10-05 05:51:00
1:51 AM,75.0,71.1,87,30.13,10.0,ENE,4.6,-,N/A,,Clear,70,2012-10-05 06:51:00
2:51 AM,75.9,70.0,82,30.12,10.0,ENE,5.8,-,N/A,,Clear,60,2012-10-05 07:51:00
3:51 AM,75.9,70.0,82,30.11,10.0,ENE,5.8,-,N/A,,Clear,60,2012-10-05 08:51:00
4:51 AM,75.9,70.0,82,30.11,10.0,NE,5.8,-,N/A,,Partly Cloudy,50,2012-10-05 09:51:00
5:51 AM,75.9,71.1,85,30.12,10.0,NE,5.8,-,N/A,,Partly Cloudy,40,2012-10-05 10:51:00
6:51 AM,75.0,71.1,87,30.12,10.0,NNE,4.6,-,N/A,,Clear,20,2012-10-05 11:51:00
7:51 AM,75.0,71.1,87,30.13,8.0,North,5.8,-,N/A,,Clear,10,2012-10-05 12:51:00
8:51 AM,78.1,71.1,79,30.13,10.0,NNE,5.8,-,N/A,,Clear,20,2012-10-05 13:51:00
9:44 AM,80.6,71.6,74,30.13,10.0,Variable,6.9,-,N/A,,Partly Cloudy,0,2012-10-05 14:44:00
9:51 AM,80.1,72.0,76,30.13,10.0,Variable,5.8,-,N/A,,Partly Cloudy,0,2012-10-05 14:51:00
10:51 AM,79.0,73.0,82,30.12,9.0,NNE,5.8,-,N/A,,Partly Cloudy,20,2012-10-05 15:51:00
11:51 AM,81.0,73.0,77,30.12,10.0,NE,6.9,-,N/A,,Partly Cloudy,40,2012-10-05 16:51:00
12:13 PM,80.6,73.4,79,30.12,10.0,ENE,9.2,-,N/A,,Mostly Cloudy,60,2012-10-05 17:13:00
12:20 PM,82.4,73.4,74,30.11,10.0,NE,8.1,-,N/A,,Scattered Clouds,50,2012-10-05 17:20:00
12:51 PM,81.0,72.0,74,30.10,10.0,NE,8.1,-,N/A,,Partly Cloudy,40,2012-10-05 17:51:00
1:51 PM,81.0,73.0,77,30.08,10.0,NE,8.1,-,N/A,,Partly Cloudy,50,2012-10-05 18:51:00
2:22 PM,80.6,73.4,79,30.07,10.0,ENE,8.1,-,N/A,,Partly Cloudy,60,2012-10-05 19:22:00
2:51 PM,81.0,72.0,74,30.04,10.0,Variable,6.9,-,N/A,,Partly Cloudy,0,2012-10-05 19:51:00
3:51 PM,80.1,72.0,76,30.02,10.0,ENE,6.9,-,N/A,,Partly Cloudy,70,2012-10-05 20:51:00
4:51 PM,80.1,72.0,76,30.02,10.0,ENE,6.9,-,N/A,,Partly Cloudy,60,2012-10-05 21:51:00
5:51 PM,78.1,71.1,79,30.01,10.0,NE,4.6,-,N/A,,Clear,50,2012-10-05 22:51:00